Portada
METAR-TAF:

METAR-TAF

Aeroports :

Harbin, Xina

latitud: 45-45N, longitud: 126-46E, altitud: 143 m

Observació

L'informe es va fer fa 45 minuts, a les 16:00 UTC
Vent 2 kt amb direcció variable
Temperatura -16°C
Humitat 92%
Pressió 1020 hPa
Visibilitat: 3000 m
boirina

METAR: ZYHB 211600Z VRB01MPS 3000 BR NSC M16/M17 Q1020 BECMG TL1730 2000

Hora: 00:45 (16:45 UTC)

Pronòstic

L'informe es va fer fa 8 hores i 35 minuts, a les 08:10 UTC
Pronòstic vàlid del 21 a les 12 UTC al 22 a les 12 UTC
Vent 10 kt del Sud/Sud-Oest
Visibilitat: 6000 m
Escasses núvols a una alçada de 3000 ft
Evolucionant progressivament
l' 21 a les 18 UTC al 21 a les 19 UTC
Vent 8 kt del Oest/Nord-Oest

TAF: ZYHB 210810Z 2112/2212 20005MPS 6000 FEW030 TXM10/2206Z TNM20/2122Z BECMG 2118/2119 30004MPS

Observacions i pronòstics meteorològics de més de 4000 aeroports (METAR i TAF).

Les estacions disponibles són els punts grocs i vermells al mapa.

Posi el ratolí al punt desitjat per veure el nom de l'estació.

Feu clic per veure les observacions i els pronòstics meteorològics.

Per canviar el mapa: feu clic els botons verds amb una creu de color negre per apropar; al botó verd amb un guió per allunyar la imatge; o en les fletxes verdes per a mapes adjacents.


METAR-TAF: